Breckenridge, TX

11:36 AM CDT on October 02, 2014 (GMT -0500)
Abilene Regional | Change Station
CLOSE
Current Station
Airport
Location: Abilene,
Elevation: 1788 ft
Nearby Weather Stations

Elev 1788 ft 32.41 °N, 99.68 °W | Updated 44 minutes ago

Clear
Clear
85 °F
Feels Like 88 °F
N
17
Wind Variable Wind from SW
Gusts 22 mph

Today
High -- | Low -- °F
--% Chance of Precip.
Yesterday
High -- | Low -- °F
Precip. -- in
7:30 AM 7:18 PM
First Quarter, 60% visible
Pressure 29.78 in
Visibility 10.0 miles
Clouds Clear
Heat Index 88 °F
Dew Point 67 °F
Humidity 55%
Rainfall 0.00 in
Snow Depth Not available.
UV 5 out of 12
Pollen 9.40 out of 12
Air Quality Not available.
Flu Activity Not available.
METAR KABI 021552Z 23015G19KT 10SM CLR 29/19 A2987 RMK AO2 SLP084 T02940194

More Conditions Fewer Conditions

Pressure 29.78 in
Visibility 10.0 miles
Clouds Clear
Heat Index 88 °F
Dew Point 67 °F
Humidity 55%
Rainfall 0.00 in
Snow Depth Not available.
UV 5 out of 12
Pollen 9.40 out of 12
Air Quality Not available.
Flu Activity Not available.
METAR KABI 021552Z 23015G19KT 10SM CLR 29/19 A2987 RMK AO2 SLP084 T02940194

More Conditions Fewer Conditions

Nowcast | as of 11:05 am CDT on October 2, 2014

Isolated to scattered showers with a few thunderstorms continue west of a line from Lake Texoma to Clifton. Cells are moving northeast at 45 to 50 mph with the stronger storms producing brief moderate to heavy rain and lightning. Increase in coverage late morning ahead of a cold front that will move across North Texas this afternoon. There will be a hail and damaging wind threat this afternoon as well...especially mid afternoon to early evening when air temperatures are at their highest.

×

10-Day Weather Forecast

Almanac

Astronomy

Oct. 02, 2014 Rise Set
Actual Time 7:30 AM CDT 7:18 PM CDT
Civil Twilight 7:05 AM CDT 7:43 PM CDT
Nautical Twilight 6:37 AM CDT 8:11 PM CDT
Astronomical Twilight 6:08 AM CDT 8:40 PM CDT
Moon 3:09 PM CDT 1:06 AM CDT
Length of Visible Light 12h 37m
Length of Day
11h 48m
Tomorrow will be 1m 59s shorter.
First Quarter, 60% of the Moon is Illuminated
Today
First Quarter
Oct 8
Full
Oct 15
Last Quarter
Oct 23
New
Oct 30
First Quarter

Today's Extremes

State Highs State Lows

Community

WunderPhotos

Upload Photos

1,758,294 photos uploaded!

WunderBlogs® & News

Nearby

Snow Depth

Station Depth Elevation
No new snow has been reported.

Earthquake Activity

City Distance Mag. Time & Date
No recent earthquake activity has been reported nearby.
Minimum magnitude displayed is 2.5.

Coastal Water Temperatures

Place Temperature
No Stations Reporting

Nearby Weather Stations